地図

経路データ

SID SEASON NUMBER BASIN SUBBASIN NAME ISO_TIME NATURE LAT LON WMO_WIND WMO_PRES WMO_AGENCY TRACK_TYPE DIST2LAND LANDFALL IFLAG USA_AGENCY USA_ATCF_ID USA_LAT USA_LON USA_RECORD USA_STATUS USA_WIND USA_PRES USA_SSHS USA_R34_NE USA_R34_SE USA_R34_SW USA_R34_NW USA_R50_NE USA_R50_SE USA_R50_SW USA_R50_NW USA_R64_NE USA_R64_SE USA_R64_SW USA_R64_NW USA_POCI USA_ROCI USA_RMW USA_EYE TOKYO_LAT TOKYO_LON TOKYO_GRADE TOKYO_WIND TOKYO_PRES TOKYO_R50_DIR TOKYO_R50_LONG TOKYO_R50_SHORT TOKYO_R30_DIR TOKYO_R30_LONG TOKYO_R30_SHORT TOKYO_LAND CMA_LAT CMA_LON CMA_CAT CMA_WIND CMA_PRES HKO_LAT HKO_LON HKO_CAT HKO_WIND HKO_PRES NEWDELHI_LAT NEWDELHI_LON NEWDELHI_GRADE NEWDELHI_WIND NEWDELHI_PRES NEWDELHI_CI NEWDELHI_DP NEWDELHI_POCI REUNION_LAT REUNION_LON REUNION_TYPE REUNION_WIND REUNION_PRES REUNION_TNUM REUNION_CI REUNION_RMW REUNION_R34_NE REUNION_R34_SE REUNION_R34_SW REUNION_R34_NW REUNION_R50_NE REUNION_R50_SE REUNION_R50_SW REUNION_R50_NW REUNION_R64_NE REUNION_R64_SE REUNION_R64_SW REUNION_R64_NW BOM_LAT BOM_LON BOM_TYPE BOM_WIND BOM_PRES BOM_TNUM BOM_CI BOM_RMW BOM_R34_NE BOM_R34_SE BOM_R34_SW BOM_R34_NW BOM_R50_NE BOM_R50_SE BOM_R50_SW BOM_R50_NW BOM_R64_NE BOM_R64_SE BOM_R64_SW BOM_R64_NW BOM_ROCI BOM_POCI BOM_EYE BOM_POS_METHOD BOM_PRES_METHOD NADI_LAT NADI_LON NADI_CAT NADI_WIND NADI_PRES WELLINGTON_LAT WELLINGTON_LON WELLINGTON_WIND WELLINGTON_PRES DS824_LAT DS824_LON DS824_STAGE DS824_WIND DS824_PRES TD9636_LAT TD9636_LON TD9636_STAGE TD9636_WIND TD9636_PRES TD9635_LAT TD9635_LON TD9635_WIND TD9635_PRES TD9635_ROCI NEUMANN_LAT NEUMANN_LON NEUMANN_CLASS NEUMANN_WIND NEUMANN_PRES MLC_LAT MLC_LON MLC_CLASS MLC_WIND MLC_PRES USA_GUST BOM_GUST BOM_GUST_PER REUNION_GUST REUNION_GUST_PER USA_SEAHGT USA_SEARAD_NE USA_SEARAD_SE USA_SEARAD_SW USA_SEARAD_NW STORM_SPEED STORM_DIR
1999315N13127 1999 97 WP MM GLORIA 1999-11-10 12:00:00 NR 12.9000 126.600 main 142 137 O_____________ jtwc_wp WP301999 12.9000 126.600 15 -1 4 163
1999315N13127 1999 97 WP MM GLORIA 1999-11-10 15:00:00 NR 12.7351 126.658 main 141 137 P_____________ WP301999 12.7351 126.658 15 -1 3 163
1999315N13127 1999 97 WP MM GLORIA 1999-11-10 18:00:00 NR 12.6000 126.700 main 137 134 O_____________ jtwc_wp WP301999 12.6000 126.700 15 -1 3 161
1999315N13127 1999 97 WP MM GLORIA 1999-11-10 21:00:00 NR 12.4949 126.740 main 134 134 P_____________ WP301999 12.4949 126.740 15 -1 4 147
1999315N13127 1999 97 WP MM GLORIA 1999-11-11 00:00:00 NR 12.3000 126.900 main 152 152 O_____________ jtwc_wp WP301999 12.3000 126.900 15 -1 8 139
1999315N13127 1999 97 WP MM GLORIA 1999-11-11 03:00:00 NR 11.8950 127.275 main 192 186 P_____________ WP301999 11.8950 127.275 15 -1 13 136
1999315N13127 1999 97 WP MM GLORIA 1999-11-11 06:00:00 NR 11.4000 127.800 main 222 222 O_____________ jtwc_wp WP301999 11.4000 127.800 15 -1 15 132
1999315N13127 1999 97 WP MM GLORIA 1999-11-11 09:00:00 NR 10.8902 128.408 main 284 284 P_____________ WP301999 10.8902 128.408 15 -1 15 127
1999315N13127 1999 97 WP MM GLORIA 1999-11-11 12:00:00 NR 10.5000 129.000 main 339 339 O_____________ jtwc_wp WP301999 10.5000 129.000 15 -1 11 116
1999315N13127 1999 97 WP MM GLORIA 1999-11-11 15:00:00 NR 10.3898 129.437 main 375 375 P_____________ WP301999 10.3898 129.437 17 -1 8 97
1999315N13127 1999 97 WP MM GLORIA 1999-11-11 18:00:00 NR 10.4000 129.800 main 417 417 O_____________ jtwc_wp WP301999 10.4000 129.800 20 -1 7 96
1999315N13127 1999 97 WP MM GLORIA 1999-11-11 21:00:00 NR 10.3125 130.173 main 455 455 P_____________ WP301999 10.3125 130.173 20 -1 7 98
1999315N13127 1999 97 WP MM GLORIA 1999-11-12 00:00:00 NR 10.3000 130.500 main 487 487 O_____________ jtwc_wp WP301999 10.3000 130.500 20 -1 6 76
1999315N13127 1999 97 WP MM GLORIA 1999-11-12 03:00:00 NR 10.4700 130.795 main 524 524 P_____________ WP301999 10.4700 130.795 20 -1 6 51
1999315N13127 1999 97 WP MM GLORIA 1999-11-12 06:00:00 NR 10.7000 131.000 main 552 552 O_____________ jtwc_wp WP301999 10.7000 131.000 20 -1 4 35
1999315N13127 1999 97 WP MM GLORIA 1999-11-12 09:00:00 NR 10.8274 131.050 main 566 566 P_____________ WP301999 10.8274 131.050 20 -1 3 17
1999315N13127 1999 97 WP MM GLORIA 1999-11-12 12:00:00 NR 11.0000 131.100 main 573 573 O_____________ jtwc_wp WP301999 11.0000 131.100 20 -1 5 33
1999315N13127 1999 97 WP MM GLORIA 1999-11-12 15:00:00 NR 11.2526 131.335 main 601 601 P_____________ WP301999 11.2526 131.335 20 -1 9 35
1999315N13127 1999 97 WP MM GLORIA 1999-11-12 18:00:00 NR 11.7000 131.600 main 637 637 O_____________ jtwc_wp WP301999 11.7000 131.600 20 -1 13 20
1999315N13127 1999 97 WP MM GLORIA 1999-11-12 21:00:00 NR 12.4475 131.772 main 672 672 P_____________ WP301999 12.4475 131.772 20 -1 18 16
1999315N13127 1999 97 WP MM GLORIA 1999-11-13 00:00:00 TS 13.4000 132.100 1002 tokyo main 728 728 OO____________ jtwc_wp WP301999 13.3000 131.900 20 -1 13.8000 132.900 2 1002 0 0 0 17 17
1999315N13127 1999 97 WP MM GLORIA 1999-11-13 03:00:00 TS 14.0242 132.259 main 763 763 PP____________ WP301999 14.0450 132.037 22 -1 13.9825 132.703 2 1001 0 0 11 9
1999315N13127 1999 97 WP MM GLORIA 1999-11-13 06:00:00 TS 14.4857 132.271 1000 tokyo main 779 777 OO____________ jtwc_wp WP301999 14.7000 132.100 25 -1 14.2000 132.500 2 1000 0 0 0 9 354
1999315N13127 1999 97 WP MM GLORIA 1999-11-13 09:00:00 TS 14.8699 132.170 main 785 773 PP____________ WP301999 15.2374 132.060 27 -1 14.5024 132.280 2 1000 0 0 10 338
1999315N13127 1999 97 WP MM GLORIA 1999-11-13 12:00:00 TS 15.4222 131.878 1000 tokyo main 778 774 OO_O__________ jtwc_wp WP301999 15.7000 131.900 30 -1 15.0000 132.000 2 1000 0 0 0 16.0000 131.300 TD 25 1002 14 332
1999315N13127 1999 97 WP MM GLORIA 1999-11-13 15:00:00 TS 16.1001 131.505 main 780 777 PP_P__________ WP301999 16.1576 131.623 30 -1 15.8127 131.601 2 1000 0 0 16.5601 131.080 TD 27 1001 15 333
1999315N13127 1999 97 WP MM GLORIA 1999-11-13 18:00:00 TS 16.7667 131.158 1000 tokyo main 798 788 OOOO__________ jtwc_wp WP301999 16.6000 131.300 30 -1 16.7000 131.200 2 1000 0 0 0 16.7000 131.200 1 23 1000 17.1000 130.900 TD 30 1000 14 335
1999315N13127 1999 97 WP MM GLORIA 1999-11-13 21:00:00 TS 17.3528 130.908 main 798 794 PPPP__________ WP301999 17.0425 131.035 30 -1 17.3949 130.890 2 999 0 0 17.3801 130.935 1 26 999 17.6075 130.785 TD 32 999 12 340
1999315N13127 1999 97 WP MM GLORIA 1999-11-14 00:00:00 TS 17.8933 130.727 998 tokyo main 808 808 OOOO__________ jtwc_wp WP301999 17.5000 130.800 30 -1 18.0000 130.700 2 998 0 0 0 18.0000 130.700 1 29 998 18.1000 130.700 TS 35 998 11 344
1999315N13127 1999 97 WP MM GLORIA 1999-11-14 03:00:00 TS 18.4125 130.590 main 831 831 PPPP__________ WP301999 17.9550 130.570 35 0 18.5724 130.684 2 997 0 0 18.5225 130.520 1 31 996 18.6000 130.585 TS 37 996 11 348
1999315N13127 1999 97 WP MM GLORIA 1999-11-14 06:00:00 TS 18.9250 130.500 35 996 tokyo main 858 857 OOOO__________ jtwc_wp WP301999 18.5000 130.400 40 0 19.1000 130.700 3 35 996 0 9 150 150 0 19.0000 130.400 2 34 995 19.1000 130.500 TS 40 994 11 351
1999315N13127 1999 97 WP MM GLORIA 1999-11-14 09:00:00 TS 19.4894 130.406 main 860 860 PPPP__________ WP301999 19.2500 130.305 42 0 19.6076 130.535 3 37 994 0 9 165 165 19.5000 130.313 2 36 993 19.6000 130.470 TS 42 989 11 354
1999315N13127 1999 97 WP MM GLORIA 1999-11-14 12:00:00 TS 20.0500 130.375 40 992 tokyo main 871 869 OOOO__________ jtwc_wp WP301999 20.0000 130.300 45 0 20.1000 130.400 3 40 992 0 9 180 180 0 20.0000 130.300 2 38 992 20.1000 130.500 TS 45 985 11 0
1999315N13127 1999 97 WP MM GLORIA 1999-11-14 15:00:00 TS 20.5424 130.413 main 881 881 PPPP__________ WP301999 20.5073 130.333 45 0 20.5999 130.433 3 42 988 0 9 190 190 20.4774 130.333 2 43 991 20.5849 130.555 TS 47 980 10 11
1999315N13127 1999 97 WP MM GLORIA 1999-11-14 18:00:00 TS 21.0500 130.575 45 985 tokyo main 919 919 OOOO__________ jtwc_wp WP301999 21.0000 130.500 45 0 21.1000 130.600 3 45 985 0 9 200 200 0 21.0000 130.500 3 48 990 21.1000 130.700 STS 50 975 12 22
1999315N13127 1999 97 WP MM GLORIA 1999-11-14 21:00:00 TS 21.6119 130.876 main 966 966 PPPP__________ WP301999 21.6625 130.840 45 0 21.5326 130.870 3 45 985 0 9 200 200 21.5976 130.848 3 48 990 21.6549 130.948 STS 50 975 14 28
1999315N13127 1999 97 WP MM GLORIA 1999-11-15 00:00:00 TS 22.2750 131.275 45 985 tokyo main 973 897 OOOO__________ jtwc_wp WP301999 22.4000 131.300 45 0 22.1000 131.200 3 45 985 0 9 200 200 0 22.3000 131.300 3 48 990 22.3000 131.300 STS 50 975 16 25
1999315N13127 1999 97 WP MM GLORIA 1999-11-15 03:00:00 TS 23.0796 131.604 main 886 804 PPPP__________ WP301999 23.1107 131.668 45 0 23.0119 131.434 3 47 982 0 9 200 200 23.1338 131.654 3 51 987 23.0618 131.661 STS 50 975 19 25
1999315N13127 1999 97 WP MM GLORIA 1999-11-15 06:00:00 TS 23.9500 132.125 50 980 tokyo main 793 732 OOOO__________ jtwc_wp WP301999 23.9000 132.300 45 0 24.0000 131.800 4 50 980 0 9 200 200 0 24.0000 132.200 3 54 985 23.9000 132.200 STS 50 975 21 36
1999315N13127 1999 97 WP MM GLORIA 1999-11-15 09:00:00 TS 24.7445 132.917 main 735 690 PPPP__________ WP301999 24.8049 133.429 52 0 24.7377 132.279 4 50 982 0 9 200 200 24.7260 133.073 3 54 985 24.7093 132.887 STS 50 975 25 48
1999315N13127 1999 97 WP MM GLORIA 1999-11-15 12:00:00 TS 25.6000 134.125 50 985 tokyo main 688 679 OOOO__________ jtwc_wp WP301999 25.8000 134.900 60 0 25.5000 133.300 4 50 985 0 9 200 200 0 25.5000 134.300 3 54 985 25.6000 134.000 STS 50 975 32 55
1999315N13127 1999 97 WP MM GLORIA 1999-11-15 15:00:00 TS 26.5708 135.795 main 685 672 PPPP__________ WP301999 26.8258 136.456 62 0 26.4287 135.226 4 50 985 0 9 200 200 26.4229 135.782 3 54 985 26.6060 135.714 STS 50 975 39 58
1999315N13127 1999 97 WP MM GLORIA 1999-11-15 18:00:00 TS 27.6500 137.800 50 985 tokyo main 664 636 OOOO__________ jtwc_wp WP301999 27.9000 138.200 65 1 27.5000 137.600 4 50 985 0 9 200 200 0 27.5000 137.600 3 54 985 27.7000 137.800 STS 50 975 42 58
1999315N13127 1999 97 WP MM GLORIA 1999-11-15 21:00:00 TS 28.8076 139.847 main 638 577 PPPP__________ WP301999 28.9729 140.030 65 1 28.7079 139.802 4 50 985 0 9 200 200 28.7480 139.673 3 54 985 28.8018 139.882 STS 50 975 44 58
1999315N13127 1999 97 WP MM GLORIA 1999-11-16 00:00:00 TS 30.0214 142.071 50 985 tokyo main 583 569 OOOO__________ jtwc_wp WP301999 30.1000 142.100 65 1 30.0000 142.100 4 50 985 0 9 200 200 0 30.0000 142.000 3 54 985 30.0000 142.100 STS 50 975 46 59
1999315N13127 1999 97 WP MM GLORIA 1999-11-16 03:00:00 TS 31.1624 144.459 main 586 586 PPPP__________ WP301999 31.2947 144.489 60 0 31.2215 144.513 4 50 985 0 9 225 225 30.9561 144.397 3 54 985 31.3244 144.446 STS 50 975 48 61
1999315N13127 1999 97 WP MM GLORIA 1999-11-16 06:00:00 TS 32.3375 147.038 50 985 tokyo main 676 676 OOOO__________ jtwc_wp WP301999 32.5000 147.100 55 0 32.5000 147.100 4 50 985 0 9 250 250 0 32.0000 147.000 3 54 985 32.7000 146.900 STS 50 975 52 62
1999315N13127 1999 97 WP MM GLORIA 1999-11-16 09:00:00 TS 33.6451 149.896 main 853 853 _PP___________ WP301999 -1 33.8855 149.909 4 987 0 9 33.4047 149.883 3 54 985 STS 57 60
1999315N13127 1999 97 WP MM GLORIA 1999-11-16 12:00:00 MX 35.1500 152.950 990 tokyo main 1072 _OO___________ -1 35.3000 152.900 6 990 0 0 0 35.0000 153.000 3 54 985 58 59

デジタル台風データ・検索

IBTrACS Databaseについて

本データベースは、米国NOAAが公開する1842年以降の世界の熱帯低気圧のベストトラックデータアーカイブInternational Best Track Archive for Climate Stewardship (IBTrACS)を、ウェブで閲覧しやすい形式に変換したものです。

最終更新日:2021-10-25